Time;durP1;ratioP1;P1;durP2;ratioP2;P2;SDS_P1;SDS_P2;PMS_P1;PMS_P2;Temp;Humidity;BMP_temperature;BMP_pressure;BME280_temperature;BME280_humidity;BME280_pressure;Samples;Min_cycle;Max_cycle;Signal;HPM_P1;HPM_P2
2021/11/21 00:00:05;;;;;;;19.50;12.68;;;;;;;12.60;58.94;99569.84;5007227;28;20223;-74
2021/11/21 00:02:32;;;;;;;21.90;11.43;;;;;;;12.56;59.10;99556.06;5005459;28;20111;-72
2021/11/21 00:04:59;;;;;;;18.25;12.13;;;;;;;12.55;59.25;99554.41;5005945;28;20464;-72
2021/11/21 00:07:26;;;;;;;18.73;13.15;;;;;;;12.52;59.25;99554.66;5006218;28;20130;-73
2021/11/21 00:09:53;;;;;;;25.73;12.32;;;;;;;12.50;59.31;99551.34;5004984;28;20510;-72
2021/11/21 00:12:22;;;;;;;18.88;12.60;;;;;;;12.50;59.31;99553.97;5006818;28;20409;-72
2021/11/21 00:14:49;;;;;;;18.55;11.55;;;;;;;12.50;59.23;99539.91;5005018;28;20662;-74
2021/11/21 00:17:16;;;;;;;19.05;13.98;;;;;;;12.49;59.21;99541.69;5004437;28;20052;-72
2021/11/21 00:19:44;;;;;;;17.58;11.77;;;;;;;12.50;59.08;99540.72;5005867;28;20054;-74
2021/11/21 00:22:13;;;;;;;15.68;10.85;;;;;;;12.47;59.24;99541.00;5007747;28;20154;-74
2021/11/21 00:24:40;;;;;;;18.77;11.30;;;;;;;12.48;59.18;99532.09;5005652;28;20412;-73
2021/11/21 00:27:08;;;;;;;15.55;11.15;;;;;;;12.49;59.01;99538.22;5007156;28;20046;-72
2021/11/21 00:29:37;;;;;;;16.77;10.75;;;;;;;12.49;59.08;99532.94;5005092;28;20559;-73
2021/11/21 00:32:05;;;;;;;18.00;10.65;;;;;;;12.47;58.98;99535.72;5006387;28;20494;-71
2021/11/21 00:34:33;;;;;;;18.00;11.93;;;;;;;12.48;59.07;99536.53;5006656;28;20081;-72
2021/11/21 00:37:00;;;;;;;17.17;11.13;;;;;;;12.46;58.97;99527.91;5004130;28;20823;-71
2021/11/21 00:39:28;;;;;;;15.88;10.73;;;;;;;12.43;58.99;99515.78;4986583;28;20111;-70
2021/11/21 00:41:56;;;;;;;18.00;10.88;;;;;;;12.41;58.96;99518.56;5007037;28;20107;-72
2021/11/21 00:44:24;;;;;;;19.02;11.07;;;;;;;12.45;58.80;99515.66;5003817;28;20132;-72
2021/11/21 00:46:52;;;;;;;18.05;11.07;;;;;;;12.43;59.08;99519.28;5005212;28;20052;-74
2021/11/21 00:49:20;;;;;;;18.98;12.77;;;;;;;12.42;58.88;99519.41;5005941;28;20041;-73
2021/11/21 00:51:47;;;;;;;20.60;11.30;;;;;;;12.37;58.67;99517.19;5004531;28;20050;-74
2021/11/21 00:54:25;;;;;;;17.63;12.05;;;;;;;12.35;58.80;99505.06;5006971;28;20173;-73
2021/11/21 00:56:52;;;;;;;17.20;10.18;;;;;;;12.33;58.94;99513.13;5005866;28;20133;-71
2021/11/21 00:59:20;;;;;;;18.48;12.18;;;;;;;12.25;58.99;99505.06;5005124;28;20056;-74
2021/11/21 01:01:49;;;;;;;19.23;11.93;;;;;;;12.26;58.83;99501.44;4989479;28;20054;-72
2021/11/21 01:04:18;;;;;;;17.77;10.73;;;;;;;12.26;58.79;99501.44;5009821;28;20536;-72
2021/11/21 01:06:46;;;;;;;17.67;10.88;;;;;;;12.26;58.73;99493.50;5022759;28;20144;-72
2021/11/21 01:09:14;;;;;;;18.60;11.82;;;;;;;12.23;58.82;99502.56;5023794;28;20041;-73
2021/11/21 01:11:42;;;;;;;14.30;9.10;;;;;;;12.26;58.57;99500.59;5025151;28;20164;-72
2021/11/21 01:14:10;;;;;;;14.27;10.35;;;;;;;12.26;58.65;99501.44;5024743;28;20049;-73
2021/11/21 01:16:38;;;;;;;15.90;9.98;;;;;;;12.26;58.55;99490.00;5026555;28;20404;-71
2021/11/21 01:19:05;;;;;;;16.40;10.77;;;;;;;12.26;58.31;99496.13;5024653;28;20132;-73
2021/11/21 01:21:33;;;;;;;16.00;9.80;;;;;;;12.27;58.11;99487.22;5025205;28;20050;-72
2021/11/21 01:24:00;;;;;;;15.95;10.25;;;;;;;12.31;58.19;99485.97;5025485;28;20086;-74
2021/11/21 01:26:27;;;;;;;13.20;9.35;;;;;;;12.32;58.11;99474.41;5025225;28;20104;-71
2021/11/21 01:28:55;;;;;;;12.70;9.43;;;;;;;12.33;57.87;99489.31;5025313;28;20042;-72
2021/11/21 01:31:22;;;;;;;20.33;14.57;;;;;;;12.32;57.86;99479.72;5025124;28;20677;-72
2021/11/21 01:33:49;;;;;;;23.90;14.65;;;;;;;12.29;57.75;99479.16;5024324;28;20049;-72
2021/11/21 01:36:16;;;;;;;16.08;9.77;;;;;;;12.31;57.87;99477.19;5024911;28;20055;-73
2021/11/21 01:38:45;;;;;;;15.25;9.77;;;;;;;12.32;57.99;99479.72;5023652;28;20053;-73
2021/11/21 01:41:13;;;;;;;15.68;9.90;;;;;;;12.33;57.92;99468.13;5024583;28;20042;-72
2021/11/21 01:43:41;;;;;;;15.77;9.80;;;;;;;12.30;57.85;99465.78;5024966;28;20045;-72
2021/11/21 01:46:09;;;;;;;18.08;10.60;;;;;;;12.24;58.26;99455.72;5017073;28;20064;-73
2021/11/21 01:48:36;;;;;;;17.00;10.10;;;;;;;12.24;58.06;99451.28;5024974;28;20124;-74
2021/11/21 01:51:05;;;;;;;14.13;9.35;;;;;;;12.26;58.00;99442.34;5025376;28;20646;-70
2021/11/21 01:53:32;;;;;;;17.45;10.32;;;;;;;12.23;58.02;99439.03;5025041;28;20053;-71
2021/11/21 01:56:01;;;;;;;15.07;11.10;;;;;;;12.24;58.03;99434.56;5023969;28;20045;-70
2021/11/21 01:58:28;;;;;;;14.32;9.20;;;;;;;12.23;57.87;99435.53;5025224;28;20124;-73
2021/11/21 02:00:55;;;;;;;16.17;11.23;;;;;;;12.21;57.83;99426.91;5024610;28;20077;-72
2021/11/21 02:03:24;;;;;;;15.75;10.57;;;;;;;12.19;57.86;99421.75;5025287;28;20499;-74
2021/11/21 02:05:52;;;;;;;16.80;9.75;;;;;;;12.21;57.65;99429.56;5025575;28;20049;-73
2021/11/21 02:08:20;;;;;;;17.00;10.40;;;;;;;12.22;57.74;99424.09;5022983;28;20045;-71
2021/11/21 02:10:48;;;;;;;16.77;11.68;;;;;;;12.16;57.57;99426.50;5024795;28;20045;-71
2021/11/21 02:13:19;;;;;;;18.38;11.15;;;;;;;12.13;57.36;99418.84;5026116;28;20050;-72
2021/11/21 02:15:47;;;;;;;15.73;9.18;;;;;;;12.15;57.32;99415.06;4989083;28;20041;-75
2021/11/21 02:18:14;;;;;;;13.90;8.90;;;;;;;12.16;57.32;99408.81;5030680;28;20459;-78
2021/11/21 02:20:51;;;;;;;15.43;10.73;;;;;;;12.17;57.39;99407.84;5032983;28;20052;-72
2021/11/21 02:23:18;;;;;;;18.42;12.70;;;;;;;12.17;57.21;99407.84;5023122;28;20109;-73
2021/11/21 02:25:46;;;;;;;16.45;11.18;;;;;;;12.18;57.26;99412.13;5033498;28;20052;-73
2021/11/21 02:28:16;;;;;;;18.20;10.98;;;;;;;12.19;57.16;99415.59;5029451;28;20073;-73
2021/11/21 02:30:44;;;;;;;17.98;10.30;;;;;;;12.20;57.20;99404.06;5024472;28;20049;-72
2021/11/21 02:33:13;;;;;;;16.15;10.73;;;;;;;12.19;56.94;99402.38;5025247;28;20049;-72
2021/11/21 02:35:41;;;;;;;18.95;10.77;;;;;;;12.19;56.84;99399.72;5024475;28;20045;-72
2021/11/21 02:38:12;;;;;;;22.10;14.40;;;;;;;12.14;56.54;99397.53;5023988;28;20438;-72
2021/11/21 02:40:39;;;;;;;17.05;11.63;;;;;;;12.15;56.56;99401.00;5010693;28;20519;-73
2021/11/21 02:43:06;;;;;;;16.30;9.52;;;;;;;12.19;56.46;99410.31;5003861;28;20052;-72
2021/11/21 02:45:34;;;;;;;15.18;10.05;;;;;;;12.18;56.58;99403.38;5004761;28;20093;-72
2021/11/21 02:48:01;;;;;;;16.23;9.00;;;;;;;12.20;56.50;99391.66;5004409;28;20591;-72
2021/11/21 02:50:29;;;;;;;14.30;10.25;;;;;;;12.19;56.41;99394.44;5004873;28;20137;-73
2021/11/21 02:52:59;;;;;;;15.93;10.52;;;;;;;12.18;56.47;99400.72;5005208;28;20408;-73
2021/11/21 02:55:29;;;;;;;16.83;12.68;;;;;;;12.17;56.37;99391.09;5004712;28;20127;-73
2021/11/21 02:57:57;;;;;;;16.23;9.57;;;;;;;12.16;56.20;99392.91;5004324;28;20245;-74
2021/11/21 03:00:24;;;;;;;15.15;9.20;;;;;;;12.17;56.20;99385.81;5004952;28;20042;-72
2021/11/21 03:02:52;;;;;;;15.07;7.93;;;;;;;12.14;56.23;99389.59;5004479;28;20068;-72
2021/11/21 03:05:20;;;;;;;16.67;10.95;;;;;;;12.11;56.16;99386.38;5004959;28;20050;-73
2021/11/21 03:07:48;;;;;;;19.08;11.68;;;;;;;12.13;56.27;99385.25;5005137;28;20129;-71
2021/11/21 03:10:18;;;;;;;13.48;9.38;;;;;;;12.12;55.88;99370.38;5002050;28;20046;-70
2021/11/21 03:12:48;;;;;;;15.32;10.18;;;;;;;12.09;56.17;99372.47;5003465;28;20046;-69
2021/11/21 03:15:15;;;;;;;12.88;9.57;;;;;;;12.07;56.02;99367.31;5005133;28;20057;-74
2021/11/21 03:17:44;;;;;;;13.15;9.05;;;;;;;12.08;56.15;99366.31;5004441;28;20064;-72
2021/11/21 03:20:13;;;;;;;12.45;8.07;;;;;;;12.07;56.18;99366.47;4995029;28;20409;-71
2021/11/21 03:22:41;;;;;;;16.27;11.10;;;;;;;12.05;56.15;99367.44;5005510;28;20433;-75
2021/11/21 03:25:09;;;;;;;20.42;10.30;;;;;;;12.06;56.06;99357.69;5004739;28;20053;-74
2021/11/21 03:27:36;;;;;;;18.90;10.82;;;;;;;12.04;56.13;99357.81;5004731;28;20046;-72
2021/11/21 03:30:07;;;;;;;14.43;10.32;;;;;;;12.05;56.13;99348.91;5004725;28;20077;-74
2021/11/21 03:32:34;;;;;;;17.40;11.68;;;;;;;12.06;56.01;99355.03;5004289;28;20079;-72
2021/11/21 03:35:01;;;;;;;15.38;9.02;;;;;;;12.07;56.02;99340.84;5004877;28;20081;-72
2021/11/21 03:37:28;;;;;;;16.55;10.68;;;;;;;12.07;55.90;99340.00;5004193;28;20042;-72
2021/11/21 03:39:55;;;;;;;16.25;11.40;;;;;;;12.04;55.84;99347.22;5002424;28;20097;-71
2021/11/21 03:42:22;;;;;;;17.30;11.07;;;;;;;12.01;55.97;99339.59;5004361;28;20320;-73
2021/11/21 03:44:49;;;;;;;18.60;11.35;;;;;;;11.99;55.80;99341.56;5004550;28;20060;-72
2021/11/21 03:47:18;;;;;;;16.38;10.45;;;;;;;12.00;55.92;99348.50;5004409;28;20151;-73
2021/11/21 03:49:45;;;;;;;18.98;11.27;;;;;;;12.01;55.79;99338.75;5003386;28;20046;-73
2021/11/21 03:52:12;;;;;;;17.00;10.70;;;;;;;12.00;55.80;99342.38;5006831;28;20081;-72
2021/11/21 03:54:40;;;;;;;15.10;10.00;;;;;;;12.01;55.72;99328.16;5007895;28;20045;-72
2021/11/21 03:57:07;;;;;;;15.57;10.05;;;;;;;12.03;55.75;99327.06;5008174;28;20632;-71
2021/11/21 03:59:35;;;;;;;13.70;10.77;;;;;;;12.04;55.82;99333.19;5008130;28;20050;-70
2021/11/21 04:02:03;;;;;;;16.10;10.45;;;;;;;12.02;55.72;99338.59;5007658;28;20060;-71
2021/11/21 04:04:32;;;;;;;17.98;12.07;;;;;;;12.03;55.63;99337.63;5007976;28;20081;-69
2021/11/21 04:07:00;;;;;;;16.05;11.02;;;;;;;12.03;55.66;99337.63;5007839;28;20100;-70
2021/11/21 04:09:27;;;;;;;15.27;10.18;;;;;;;12.04;55.61;99334.00;5006168;28;20539;-71
2021/11/21 04:11:54;;;;;;;21.30;12.75;;;;;;;11.94;55.23;99337.66;5007631;28;20046;-69
2021/11/21 04:14:21;;;;;;;21.27;11.30;;;;;;;11.95;55.42;99334.84;5007275;28;20068;-71
2021/11/21 04:16:49;;;;;;;21.88;11.77;;;;;;;11.95;55.36;99313.69;5007299;28;20046;-69
2021/11/21 04:19:16;;;;;;;17.80;12.70;;;;;;;11.93;55.33;99320.13;5007696;28;20130;-72
2021/11/21 04:21:45;;;;;;;15.10;10.25;;;;;;;11.93;55.67;99320.94;5008002;28;20041;-71
2021/11/21 04:24:14;;;;;;;18.17;11.70;;;;;;;11.94;55.48;99321.78;5007674;28;20593;-73
2021/11/21 04:26:42;;;;;;;17.25;9.93;;;;;;;11.92;55.50;99323.72;5009844;28;20050;-71
2021/11/21 04:29:10;;;;;;;16.63;11.13;;;;;;;11.94;55.42;99327.06;5007497;28;20049;-73
2021/11/21 04:31:37;;;;;;;20.42;10.75;;;;;;;11.93;55.60;99322.75;5008402;28;20500;-73
2021/11/21 04:34:07;;;;;;;20.98;12.48;;;;;;;11.91;55.59;99319.44;5006950;28;20046;-73
2021/11/21 04:36:34;;;;;;;22.30;13.00;;;;;;;11.90;55.44;99326.50;5008539;28;20046;-73
2021/11/21 04:39:04;;;;;;;20.25;12.52;;;;;;;11.91;55.77;99322.91;5006440;28;20049;-73
2021/11/21 04:41:31;;;;;;;19.08;11.07;;;;;;;11.91;55.53;99317.59;5007074;28;20053;-73
2021/11/21 04:43:58;;;;;;;23.60;12.48;;;;;;;11.93;55.54;99320.13;5007601;28;20042;-72
2021/11/21 04:46:25;;;;;;;22.98;12.70;;;;;;;11.91;55.49;99314.97;5007114;28;20081;-74
2021/11/21 04:48:52;;;;;;;21.42;12.18;;;;;;;11.88;55.65;99303.81;5007283;28;20492;-73
2021/11/21 04:51:19;;;;;;;19.40;12.45;;;;;;;11.87;55.65;99302.97;5007890;28;20046;-72
2021/11/21 04:53:47;;;;;;;19.42;11.80;;;;;;;11.84;55.73;99312.00;5006222;28;20530;-74
2021/11/21 04:56:15;;;;;;;18.60;11.00;;;;;;;11.86;55.84;99312.69;5006841;28;20136;-73
2021/11/21 04:58:42;;;;;;;21.48;14.43;;;;;;;11.79;56.10;99316.06;5007844;28;20132;-72
2021/11/21 05:01:09;;;;;;;19.80;12.30;;;;;;;11.75;56.07;99312.88;5006611;28;20142;-73
2021/11/21 05:03:36;;;;;;;19.90;12.95;;;;;;;11.75;55.98;99309.41;5006157;28;20091;-74
2021/11/21 05:06:03;;;;;;;16.40;11.32;;;;;;;11.72;56.07;99309.69;5006710;28;20054;-73
2021/11/21 05:08:30;;;;;;;21.00;12.85;;;;;;;11.71;56.22;99302.72;5005634;28;20469;-74
2021/11/21 05:10:57;;;;;;;22.92;13.27;;;;;;;11.66;56.36;99303.16;5006118;28;20137;-74
2021/11/21 05:13:25;;;;;;;22.60;13.90;;;;;;;11.71;56.37;99310.66;5007013;28;20048;-74
2021/11/21 05:15:52;;;;;;;21.98;12.55;;;;;;;11.70;56.34;99303.69;5006174;28;20436;-73
2021/11/21 05:18:19;;;;;;;20.88;13.95;;;;;;;11.64;56.45;99295.34;5006160;28;20121;-72
2021/11/21 05:20:46;;;;;;;24.48;13.25;;;;;;;11.61;56.77;99300.09;5006629;28;20053;-72
2021/11/21 05:23:13;;;;;;;24.67;13.68;;;;;;;11.55;56.99;99295.38;5006961;28;20577;-72
2021/11/21 05:25:40;;;;;;;23.75;14.15;;;;;;;11.51;56.98;99286.88;5006328;28;20046;-71
2021/11/21 05:28:07;;;;;;;22.90;13.32;;;;;;;11.52;57.11;99291.19;5006582;28;20128;-70
2021/11/21 05:30:36;;;;;;;19.63;13.38;;;;;;;11.54;57.21;99289.25;5006137;28;20042;-71
2021/11/21 05:33:03;;;;;;;22.73;13.18;;;;;;;11.54;57.00;99289.25;5006759;28;20134;-73
2021/11/21 05:35:30;;;;;;;20.30;12.60;;;;;;;11.51;57.06;99283.41;5006779;28;20053;-74
2021/11/21 05:37:57;;;;;;;19.83;12.05;;;;;;;11.48;57.16;99289.81;5006252;28;20088;-73
2021/11/21 05:40:24;;;;;;;21.42;13.70;;;;;;;11.47;57.42;99285.50;5005210;28;20409;-72
2021/11/21 05:42:52;;;;;;;18.52;11.80;;;;;;;11.47;57.27;99280.22;5007868;28;20052;-73
2021/11/21 05:45:19;;;;;;;21.55;13.25;;;;;;;11.52;57.24;99277.13;5007791;28;20065;-73
2021/11/21 05:47:48;;;;;;;19.50;13.15;;;;;;;11.48;57.33;99282.69;5009378;28;20114;-73
2021/11/21 05:50:16;;;;;;;24.70;13.93;;;;;;;11.45;57.46;99284.78;5007226;28;20056;-73
2021/11/21 05:52:45;;;;;;;17.88;11.38;;;;;;;11.44;57.53;99283.13;5008895;28;20050;-74
2021/11/21 05:55:14;;;;;;;23.77;14.75;;;;;;;11.41;57.70;99278.13;5010514;28;20081;-73
2021/11/21 05:57:44;;;;;;;22.02;13.75;;;;;;;11.38;57.89;99270.47;5016527;28;20128;-73
2021/11/21 06:00:14;;;;;;;20.27;12.32;;;;;;;11.39;57.70;99269.50;5017929;28;20046;-73
2021/11/21 06:02:41;;;;;;;22.02;11.73;;;;;;;11.36;57.78;99265.34;5020136;28;20109;-74
2021/11/21 06:05:11;;;;;;;26.25;14.95;;;;;;;11.41;57.94;99264.91;5021165;28;20052;-80
2021/11/21 06:07:38;;;;;;;22.60;12.45;;;;;;;11.36;57.91;99264.47;5020770;28;20086;-73
2021/11/21 06:10:07;;;;;;;21.35;14.10;;;;;;;11.35;57.95;99265.47;5016014;28;20077;-71
2021/11/21 06:12:34;;;;;;;22.65;14.68;;;;;;;11.34;57.94;99261.16;5016748;28;20056;-71
2021/11/21 06:15:01;;;;;;;23.40;14.45;;;;;;;11.34;58.05;99261.16;5008075;28;20054;-70
2021/11/21 06:17:28;;;;;;;19.58;13.27;;;;;;;11.34;58.03;99255.84;5010048;28;20042;-71
2021/11/21 06:19:55;;;;;;;22.92;13.35;;;;;;;11.35;58.08;99260.19;5015297;28;20101;-71
2021/11/21 06:22:24;;;;;;;23.75;14.88;;;;;;;11.35;58.03;99262.84;5013552;28;20477;-71
2021/11/21 06:24:51;;;;;;;22.00;13.13;;;;;;;11.33;58.17;99264.78;5009307;28;20050;-72
2021/11/21 06:27:19;;;;;;;24.30;13.23;;;;;;;11.34;58.12;99255.84;5017059;28;20109;-71
2021/11/21 06:29:46;;;;;;;21.65;13.68;;;;;;;11.35;58.02;99262.84;5021407;28;20112;-74
2021/11/21 06:32:13;;;;;;;26.70;14.27;;;;;;;11.33;57.91;99252.38;5033024;28;20046;-71
2021/11/21 06:34:40;;;;;;;21.60;13.32;;;;;;;11.33;58.01;99248.91;5035913;28;20321;-70
2021/11/21 06:37:11;;;;;;;20.92;12.07;;;;;;;11.33;58.05;99249.75;5034449;28;20612;-73
2021/11/21 06:39:41;;;;;;;21.90;14.35;;;;;;;11.37;57.97;99252.94;5036144;28;20600;-73
2021/11/21 06:42:09;;;;;;;31.25;18.88;;;;;;;11.39;57.87;99251.00;5032643;28;20567;-75
2021/11/21 06:44:36;;;;;;;23.40;13.45;;;;;;;11.41;57.77;99257.78;5029096;28;20055;-73
2021/11/21 06:47:03;;;;;;;30.17;16.15;;;;;;;11.43;57.95;99249.72;5031427;28;20049;-75
2021/11/21 06:49:30;;;;;;;23.05;13.43;;;;;;;11.46;57.60;99246.81;5035184;28;20132;-75
2021/11/21 06:51:58;;;;;;;24.90;14.65;;;;;;;11.45;57.52;99255.69;5027311;28;20477;-72
2021/11/21 06:54:25;;;;;;;22.52;15.05;;;;;;;11.50;57.40;99261.41;5028479;28;20046;-75
2021/11/21 06:56:54;;;;;;;23.20;13.63;;;;;;;11.53;57.40;99263.78;5028799;28;20659;-73
2021/11/21 06:59:21;;;;;;;26.65;15.55;;;;;;;11.54;57.24;99260.16;5027769;28;20465;-72
2021/11/21 07:01:48;;;;;;;21.95;13.57;;;;;;;11.56;57.31;99263.50;5024800;28;20053;-71
2021/11/21 07:04:15;;;;;;;22.88;13.48;;;;;;;11.60;57.11;99248.19;5025872;28;20132;-74
2021/11/21 07:06:46;;;;;;;21.85;12.82;;;;;;;11.64;57.26;99253.03;5028146;28;20700;-71
2021/11/21 07:09:15;;;;;;;20.83;13.90;;;;;;;11.66;57.07;99251.06;5016130;28;20049;-75
2021/11/21 07:11:44;;;;;;;22.70;14.10;;;;;;;11.67;57.02;99246.63;5026344;28;20732;-73
2021/11/21 07:14:12;;;;;;;22.23;13.18;;;;;;;11.72;56.89;99247.03;5018293;28;20056;-73
2021/11/21 07:16:41;;;;;;;25.20;16.58;;;;;;;11.74;56.79;99247.72;5024901;28;20041;-70
2021/11/21 07:19:09;;;;;;;25.58;13.57;;;;;;;11.73;56.74;99246.03;5024366;28;20094;-71
2021/11/21 07:21:36;;;;;;;27.38;15.35;;;;;;;11.79;56.44;99239.34;5023641;28;20105;-72
2021/11/21 07:24:03;;;;;;;25.05;13.73;;;;;;;11.81;56.31;99240.03;5023651;28;20053;-71
2021/11/21 07:26:31;;;;;;;18.00;10.90;;;;;;;11.85;56.10;99236.97;5026341;28;20505;-71
2021/11/21 07:28:59;;;;;;;22.08;13.80;;;;;;;11.95;55.94;99231.66;5029008;28;20056;-72
2021/11/21 07:31:31;;;;;;;23.38;12.85;;;;;;;12.00;55.90;99234.72;5022140;28;20114;-73
2021/11/21 07:34:00;;;;;;;22.00;12.52;;;;;;;11.98;55.66;99227.91;5028470;28;20493;-75
2021/11/21 07:36:30;;;;;;;24.95;15.32;;;;;;;11.97;55.61;99224.41;5029120;28;20301;-72
2021/11/21 07:38:58;;;;;;;28.20;14.68;;;;;;;11.97;55.66;99231.53;5025572;28;20061;-73
2021/11/21 07:41:26;;;;;;;19.38;12.95;;;;;;;11.93;55.72;99233.63;5026542;28;20053;-72
2021/11/21 07:43:53;;;;;;;20.02;12.02;;;;;;;11.91;55.51;99217.06;5026963;28;20057;-76
2021/11/21 07:46:25;;;;;;;20.70;12.50;;;;;;;11.97;55.43;99224.41;5025024;28;20068;-71
2021/11/21 07:48:56;;;;;;;22.60;13.73;;;;;;;11.99;55.35;99217.19;5026654;28;20097;-71
2021/11/21 07:51:24;;;;;;;21.65;13.18;;;;;;;11.99;55.38;99218.97;5028699;28;20045;-73
2021/11/21 07:53:52;;;;;;;20.15;13.43;;;;;;;12.01;55.25;99219.66;4974432;28;20120;-72
2021/11/21 07:56:20;;;;;;;26.90;16.17;;;;;;;12.02;55.48;99221.34;5029701;28;20073;-75
2021/11/21 07:58:47;;;;;;;21.60;14.63;;;;;;;12.01;55.30;99215.22;5021589;28;20096;-72
2021/11/21 08:01:14;;;;;;;21.15;13.77;;;;;;;11.99;55.15;99214.53;5007579;28;20065;-73
2021/11/21 08:03:41;;;;;;;18.90;13.23;;;;;;;12.01;55.21;99217.88;4997358;28;20081;-72
2021/11/21 08:06:10;;;;;;;21.10;12.40;;;;;;;12.03;55.20;99223.84;4997000;28;20046;-74
2021/11/21 08:08:37;;;;;;;24.02;15.85;;;;;;;12.07;55.03;99220.91;4994888;28;20624;-72
2021/11/21 08:11:05;;;;;;;25.23;15.82;;;;;;;12.05;55.07;99215.75;4998364;28;20125;-70
2021/11/21 08:13:38;;;;;;;22.60;13.93;;;;;;;12.11;54.96;99222.28;4994648;28;20050;-72
2021/11/21 08:16:06;;;;;;;22.80;14.40;;;;;;;12.13;55.16;99218.50;4996673;28;20086;-70
2021/11/21 08:18:33;;;;;;;25.67;16.45;;;;;;;12.15;54.91;99219.16;4995201;28;20080;-70
2021/11/21 08:21:00;;;;;;;26.67;15.70;;;;;;;12.16;54.78;99223.50;4996954;28;20131;-73
2021/11/21 08:23:30;;;;;;;25.00;15.40;;;;;;;12.19;54.77;99211.78;4993429;28;20478;-71
2021/11/21 08:25:57;;;;;;;23.25;13.82;;;;;;;12.21;54.75;99223.91;4994146;28;20042;-70
2021/11/21 08:28:25;;;;;;;18.63;12.98;;;;;;;12.16;54.69;99209.44;4975816;28;20126;-73
2021/11/21 08:30:56;;;;;;;24.17;14.82;;;;;;;12.15;54.62;99207.75;4993092;28;20061;-73
2021/11/21 08:33:23;;;;;;;21.90;14.60;;;;;;;12.12;54.64;99213.34;4979607;28;20054;-76
2021/11/21 08:35:50;;;;;;;22.77;13.18;;;;;;;12.10;54.75;99221.44;4980526;28;20046;-70
2021/11/21 08:38:18;;;;;;;27.00;16.33;;;;;;;12.14;54.70;99219.34;4975441;28;20046;-69
2021/11/21 08:40:47;;;;;;;29.92;14.52;;;;;;;12.18;54.69;99218.88;4989629;28;20041;-74
2021/11/21 08:43:15;;;;;;;24.48;16.13;;;;;;;12.22;54.54;99214.97;4994127;28;20120;-69
2021/11/21 08:45:42;;;;;;;27.95;17.48;;;;;;;12.27;54.51;99213.69;4993683;28;20153;-71
2021/11/21 08:48:09;;;;;;;24.65;16.70;;;;;;;12.25;54.46;99219.13;4991789;28;20050;-69
2021/11/21 08:50:36;;;;;;;33.60;18.52;;;;;;;12.23;54.50;99221.94;4994563;28;20042;-67
2021/11/21 08:53:04;;;;;;;22.20;14.20;;;;;;;12.18;54.46;99210.94;4993243;28;20050;-70
2021/11/21 08:55:32;;;;;;;24.02;15.50;;;;;;;12.22;54.43;99206.19;4992333;28;20068;-70
2021/11/21 08:58:00;;;;;;;22.10;13.82;;;;;;;12.19;54.38;99207.34;4993966;28;20473;-72
2021/11/21 09:00:27;;;;;;;25.33;16.75;;;;;;;12.12;54.41;99210.69;4991147;28;20046;-70
2021/11/21 09:02:55;;;;;;;21.55;14.30;;;;;;;12.13;54.55;99204.44;5013692;28;20081;-68
2021/11/21 09:05:23;;;;;;;28.17;16.58;;;;;;;12.14;54.54;99206.13;5010601;28;20129;-69
2021/11/21 09:07:50;;;;;;;22.60;14.30;;;;;;;12.13;54.55;99209.72;5019706;28;20061;-70
2021/11/21 09:10:28;;;;;;;26.90;16.80;;;;;;;12.13;54.56;99204.44;5020215;28;20081;-73
2021/11/21 09:12:57;;;;;;;20.73;12.68;;;;;;;12.16;54.32;99210.25;5022842;28;20052;-70
2021/11/21 09:15:34;;;;;;;29.27;18.67;;;;;;;12.16;54.68;99207.63;5021590;28;20052;-68
2021/11/21 09:18:05;;;;;;;27.23;16.70;;;;;;;12.18;54.38;99212.78;5025990;28;20493;-71
2021/11/21 09:20:33;;;;;;;24.45;16.73;;;;;;;12.10;54.61;99217.94;5022544;28;20046;-71
2021/11/21 09:23:01;;;;;;;29.73;16.40;;;;;;;12.08;54.50;99212.78;5020970;28;20502;-70
2021/11/21 09:25:31;;;;;;;28.90;17.10;;;;;;;12.09;54.75;99206.53;5022834;28;20128;-70
2021/11/21 09:27:58;;;;;;;28.15;18.02;;;;;;;12.04;54.60;99214.91;5021787;28;20054;-71
2021/11/21 09:30:27;;;;;;;27.85;16.77;;;;;;;12.08;54.56;99211.97;5018249;28;20066;-71
2021/11/21 09:32:55;;;;;;;19.98;11.70;;;;;;;12.08;54.49;99199.56;5013080;28;20141;-70
2021/11/21 09:35:29;;;;;;;24.85;16.48;;;;;;;12.13;54.43;99189.38;5012116;28;20133;-71
2021/11/21 09:37:58;;;;;;;22.35;14.93;;;;;;;12.24;54.15;99177.75;5008784;28;20129;-72
2021/11/21 09:40:29;;;;;;;24.20;16.20;;;;;;;12.23;54.07;99179.56;5013903;28;20559;-72
2021/11/21 09:42:56;;;;;;;27.10;15.18;;;;;;;12.28;53.93;99180.94;5011494;28;20046;-73
2021/11/21 09:45:23;;;;;;;23.98;14.98;;;;;;;12.28;54.01;99173.84;5011779;28;21394;-72
2021/11/21 09:47:51;;;;;;;27.30;14.93;;;;;;;12.29;53.97;99174.66;5010708;28;20042;-76
2021/11/21 09:50:22;;;;;;;21.63;13.45;;;;;;;12.35;53.91;99174.91;5012753;28;20126;-71
2021/11/21 09:52:50;;;;;;;24.80;14.45;;;;;;;12.39;53.77;99173.63;5010781;28;20112;-71
2021/11/21 09:55:19;;;;;;;22.98;14.40;;;;;;;12.42;53.89;99177.78;5012486;28;20686;-74
2021/11/21 09:57:47;;;;;;;27.80;14.98;;;;;;;12.41;53.74;99169.00;5013485;28;20079;-72
2021/11/21 10:00:16;;;;;;;23.10;15.18;;;;;;;12.38;53.83;99177.25;5010369;28;20057;-70
2021/11/21 10:02:47;;;;;;;20.13;15.70;;;;;;;12.38;53.72;99171.13;4992616;28;20079;-72
2021/11/21 10:05:22;;;;;;;21.70;14.27;;;;;;;12.49;53.69;99175.38;4992474;28;20057;-72
2021/11/21 10:07:49;;;;;;;21.83;13.52;;;;;;;12.50;53.47;99177.88;4991347;28;21027;-72
2021/11/21 10:10:19;;;;;;;26.02;16.80;;;;;;;12.47;53.63;99175.53;4993176;28;20130;-73
2021/11/21 10:12:47;;;;;;;27.58;16.95;;;;;;;12.45;53.58;99177.50;5001725;28;20050;-74
2021/11/21 10:15:16;;;;;;;28.55;17.63;;;;;;;12.48;53.53;99168.41;4998327;28;20085;-73
2021/11/21 10:17:47;;;;;;;24.48;15.98;;;;;;;12.46;53.58;99170.38;4995774;28;20046;-77
2021/11/21 10:20:20;;;;;;;22.27;15.63;;;;;;;12.38;53.58;99171.94;4990396;28;20046;-71
2021/11/21 10:23:00;;;;;;;22.35;13.52;;;;;;;12.41;53.60;99170.84;4993458;28;20038;-73
2021/11/21 10:25:44;;;;;;;27.60;15.45;;;;;;;12.37;53.73;99166.81;4989858;28;20046;-74
2021/11/21 10:28:23;;;;;;;27.98;17.20;;;;;;;12.33;53.66;99171.56;4992840;28;20046;-71
2021/11/21 10:31:04;;;;;;;22.58;14.40;;;;;;;12.34;53.84;99175.06;4989680;28;20114;-72
2021/11/21 10:33:34;;;;;;;23.08;14.18;;;;;;;12.33;53.83;99166.25;4992077;28;20138;-73
2021/11/21 10:36:05;;;;;;;22.90;16.10;;;;;;;12.33;53.79;99174.22;4992397;28;20061;-73
2021/11/21 10:38:35;;;;;;;26.58;17.13;;;;;;;12.32;53.72;99169.09;4988338;28;20859;-71
2021/11/21 10:41:07;;;;;;;21.75;14.23;;;;;;;12.22;54.16;99167.31;4988270;28;20877;-70
2021/11/21 10:43:44;;;;;;;24.80;14.55;;;;;;;12.23;54.01;99163.69;4989675;28;20670;-75
2021/11/21 10:46:33;;;;;;;22.50;14.05;;;;;;;12.30;53.94;99169.22;4981271;28;20141;-77
2021/11/21 10:49:22;;;;;;;25.67;16.80;;;;;;;12.41;53.79;99171.66;4989104;28;20049;-74
2021/11/21 10:52:06;;;;;;;26.95;14.75;;;;;;;12.40;53.67;99164.69;4987868;28;20046;-74
2021/11/21 10:54:35;;;;;;;29.23;16.90;;;;;;;12.38;53.71;99160.53;4990415;28;20045;-76
2021/11/21 10:57:05;;;;;;;23.48;14.35;;;;;;;12.40;53.73;99159.38;4993869;28;20149;-74
2021/11/21 10:59:47;;;;;;;27.85;16.48;;;;;;;12.36;53.72;99155.38;4988421;28;20100;-74
2021/11/21 11:02:17;;;;;;;22.58;13.88;;;;;;;12.32;53.84;99161.16;4989620;28;20093;-72
2021/11/21 11:05:02;;;;;;;30.98;20.13;;;;;;;12.24;53.84;99159.22;4990242;28;20069;-72
2021/11/21 11:07:35;;;;;;;23.25;13.68;;;;;;;12.19;53.75;99157.03;4985265;28;20134;-71
2021/11/21 11:10:04;;;;;;;29.70;18.88;;;;;;;12.04;54.01;99161.16;4984749;28;20045;-76
2021/11/21 11:12:33;;;;;;;24.90;15.35;;;;;;;12.09;53.93;99150.13;4988217;28;20141;-73
2021/11/21 11:15:01;;;;;;;29.98;19.42;;;;;;;12.04;54.07;99169.09;4990046;28;20145;-72
2021/11/21 11:17:28;;;;;;;38.72;22.35;;;;;;;12.02;54.12;99156.00;4990611;28;20618;-74
2021/11/21 11:20:00;;;;;;;35.88;20.33;;;;;;;12.01;54.36;99157.00;4988844;28;20050;-72
2021/11/21 11:22:30;;;;;;;36.85;19.13;;;;;;;11.98;54.39;99156.47;4993221;28;20068;-72